sensor_id;sensor_type;location;lat;lon;timestamp;pressure;altitude;pressure_sealevel;temperature;humidity
6345;BME280;3205;42.666;23.264;2023-03-22T00:01:18;93993.59;;;9.17;100.00
6345;BME280;3205;42.666;23.264;2023-03-22T00:03:45;93995.59;;;9.20;100.00
6345;BME280;3205;42.666;23.264;2023-03-22T00:06:13;93995.47;;;9.16;100.00
6345;BME280;3205;42.666;23.264;2023-03-22T00:08:41;93985.69;;;9.17;100.00
6345;BME280;3205;42.666;23.264;2023-03-22T00:11:07;93986.78;;;9.16;100.00
6345;BME280;3205;42.666;23.264;2023-03-22T00:13:35;93996.13;;;9.25;100.00
6345;BME280;3205;42.666;23.264;2023-03-22T00:16:01;93988.22;;;9.25;100.00
6345;BME280;3205;42.666;23.264;2023-03-22T00:18:28;93986.34;;;9.26;100.00
6345;BME280;3205;42.666;23.264;2023-03-22T00:20:56;93987.44;;;9.25;100.00
6345;BME280;3205;42.666;23.264;2023-03-22T00:23:24;93984.81;;;9.25;100.00
6345;BME280;3205;42.666;23.264;2023-03-22T00:25:50;93988.00;;;9.18;100.00
6345;BME280;3205;42.666;23.264;2023-03-22T00:28:17;93988.31;;;9.17;100.00
6345;BME280;3205;42.666;23.264;2023-03-22T00:30:50;93984.34;;;9.23;100.00
6345;BME280;3205;42.666;23.264;2023-03-22T00:33:17;93984.94;;;9.16;100.00
6345;BME280;3205;42.666;23.264;2023-03-22T00:35:47;93984.03;;;9.24;100.00
6345;BME280;3205;42.666;23.264;2023-03-22T00:38:13;93983.19;;;9.08;100.00
6345;BME280;3205;42.666;23.264;2023-03-22T00:40:40;93979.78;;;9.08;100.00
6345;BME280;3205;42.666;23.264;2023-03-22T00:43:06;93978.56;;;9.05;100.00
6345;BME280;3205;42.666;23.264;2023-03-22T00:45:32;93979.69;;;9.04;100.00
6345;BME280;3205;42.666;23.264;2023-03-22T00:48:00;93975.19;;;9.05;100.00
6345;BME280;3205;42.666;23.264;2023-03-22T00:50:27;93976.81;;;9.09;100.00
6345;BME280;3205;42.666;23.264;2023-03-22T00:52:53;93971.66;;;9.13;100.00
6345;BME280;3205;42.666;23.264;2023-03-22T00:55:19;93976.13;;;9.12;100.00
6345;BME280;3205;42.666;23.264;2023-03-22T00:57:46;93971.41;;;9.18;100.00
6345;BME280;3205;42.666;23.264;2023-03-22T01:00:12;93971.97;;;9.23;100.00
6345;BME280;3205;42.666;23.264;2023-03-22T01:02:39;93968.78;;;9.18;100.00
6345;BME280;3205;42.666;23.264;2023-03-22T01:05:07;93962.94;;;9.24;100.00
6345;BME280;3205;42.666;23.264;2023-03-22T01:07:34;93968.03;;;9.17;100.00
6345;BME280;3205;42.666;23.264;2023-03-22T01:10:03;93969.56;;;9.18;100.00
6345;BME280;3205;42.666;23.264;2023-03-22T01:12:29;93968.22;;;9.12;100.00
6345;BME280;3205;42.666;23.264;2023-03-22T01:14:56;93962.66;;;9.14;100.00
6345;BME280;3205;42.666;23.264;2023-03-22T01:17:22;93958.03;;;9.11;100.00
6345;BME280;3205;42.666;23.264;2023-03-22T01:19:48;93963.19;;;9.07;100.00
6345;BME280;3205;42.666;23.264;2023-03-22T01:22:15;93959.00;;;9.06;100.00
6345;BME280;3205;42.666;23.264;2023-03-22T01:24:41;93953.31;;;9.04;100.00
6345;BME280;3205;42.666;23.264;2023-03-22T01:27:07;93962.09;;;9.08;100.00
6345;BME280;3205;42.666;23.264;2023-03-22T01:29:33;93955.72;;;9.09;100.00
6345;BME280;3205;42.666;23.264;2023-03-22T01:32:00;93945.63;;;9.11;100.00
6345;BME280;3205;42.666;23.264;2023-03-22T01:34:28;93953.06;;;9.21;100.00
6345;BME280;3205;42.666;23.264;2023-03-22T01:36:55;93944.94;;;9.14;100.00
6345;BME280;3205;42.666;23.264;2023-03-22T01:39:21;93947.25;;;9.16;100.00
6345;BME280;3205;42.666;23.264;2023-03-22T01:41:47;93942.41;;;9.18;100.00
6345;BME280;3205;42.666;23.264;2023-03-22T01:44:15;93949.88;;;9.16;100.00
6345;BME280;3205;42.666;23.264;2023-03-22T01:46:43;93948.38;;;9.15;100.00
6345;BME280;3205;42.666;23.264;2023-03-22T01:49:13;93945.19;;;9.09;100.00
6345;BME280;3205;42.666;23.264;2023-03-22T01:51:40;93943.00;;;8.99;100.00
6345;BME280;3205;42.666;23.264;2023-03-22T01:54:10;93944.28;;;9.05;100.00
6345;BME280;3205;42.666;23.264;2023-03-22T01:56:40;93945.53;;;9.08;100.00
6345;BME280;3205;42.666;23.264;2023-03-22T01:59:07;93936.84;;;9.07;100.00
6345;BME280;3205;42.666;23.264;2023-03-22T02:01:36;93940.16;;;9.04;100.00
6345;BME280;3205;42.666;23.264;2023-03-22T02:04:05;93940.25;;;9.08;100.00
6345;BME280;3205;42.666;23.264;2023-03-22T02:06:34;93936.59;;;9.12;100.00
6345;BME280;3205;42.666;23.264;2023-03-22T02:09:03;93940.56;;;9.06;100.00
6345;BME280;3205;42.666;23.264;2023-03-22T02:11:31;93934.19;;;9.07;100.00
6345;BME280;3205;42.666;23.264;2023-03-22T02:14:18;93940.75;;;9.13;100.00
6345;BME280;3205;42.666;23.264;2023-03-22T02:17:01;93931.00;;;9.14;100.00
6345;BME280;3205;42.666;23.264;2023-03-22T02:20:16;93934.63;;;9.49;100.00
6345;BME280;3205;42.666;23.264;2023-03-22T02:28:46;93948.09;;;9.32;100.00
6345;BME280;3205;42.666;23.264;2023-03-22T02:31:35;93948.66;;;9.25;100.00
6345;BME280;3205;42.666;23.264;2023-03-22T02:34:43;93957.34;;;9.26;100.00
6345;BME280;3205;42.666;23.264;2023-03-22T02:37:46;93956.59;;;9.25;100.00
6345;BME280;3205;42.666;23.264;2023-03-22T02:40:23;93958.66;;;9.20;100.00
6345;BME280;3205;42.666;23.264;2023-03-22T02:42:56;93961.00;;;9.09;100.00
6345;BME280;3205;42.666;23.264;2023-03-22T02:45:29;93956.28;;;9.03;100.00
6345;BME280;3205;42.666;23.264;2023-03-22T02:48:04;93958.38;;;8.97;100.00
6345;BME280;3205;42.666;23.264;2023-03-22T02:50:38;93959.00;;;9.06;100.00
6345;BME280;3205;42.666;23.264;2023-03-22T02:53:10;93962.75;;;9.05;100.00
6345;BME280;3205;42.666;23.264;2023-03-22T02:55:43;93961.00;;;9.09;100.00
6345;BME280;3205;42.666;23.264;2023-03-22T02:58:15;93966.03;;;9.14;100.00
6345;BME280;3205;42.666;23.264;2023-03-22T03:00:43;93961.97;;;9.17;100.00
6345;BME280;3205;42.666;23.264;2023-03-22T03:03:12;93964.59;;;9.17;100.00
6345;BME280;3205;42.666;23.264;2023-03-22T03:05:44;93966.38;;;9.13;100.00
6345;BME280;3205;42.666;23.264;2023-03-22T03:08:12;93962.53;;;9.10;100.00
6345;BME280;3205;42.666;23.264;2023-03-22T03:10:41;93961.75;;;9.10;100.00
6345;BME280;3205;42.666;23.264;2023-03-22T03:13:10;93963.63;;;9.09;100.00
6345;BME280;3205;42.666;23.264;2023-03-22T03:15:38;93960.78;;;9.02;100.00
6345;BME280;3205;42.666;23.264;2023-03-22T03:18:20;93961.09;;;9.13;100.00
6345;BME280;3205;42.666;23.264;2023-03-22T03:20:57;93965.38;;;9.17;100.00
6345;BME280;3205;42.666;23.264;2023-03-22T03:23:33;93968.81;;;9.06;100.00
6345;BME280;3205;42.666;23.264;2023-03-22T03:26:08;93971.34;;;9.02;100.00
6345;BME280;3205;42.666;23.264;2023-03-22T03:28:42;93972.19;;;9.06;100.00
6345;BME280;3205;42.666;23.264;2023-03-22T03:31:23;93965.81;;;9.07;100.00
6345;BME280;3205;42.666;23.264;2023-03-22T03:33:56;93968.13;;;9.09;100.00
6345;BME280;3205;42.666;23.264;2023-03-22T03:36:27;93971.00;;;9.04;100.00
6345;BME280;3205;42.666;23.264;2023-03-22T03:38:56;93972.88;;;9.03;100.00
6345;BME280;3205;42.666;23.264;2023-03-22T03:41:26;93977.47;;;9.06;100.00
6345;BME280;3205;42.666;23.264;2023-03-22T03:43:53;93974.41;;;9.04;100.00
6345;BME280;3205;42.666;23.264;2023-03-22T03:46:22;93979.91;;;8.99;100.00
6345;BME280;3205;42.666;23.264;2023-03-22T03:48:49;93978.28;;;8.95;100.00
6345;BME280;3205;42.666;23.264;2023-03-22T03:51:16;93978.69;;;8.97;100.00
6345;BME280;3205;42.666;23.264;2023-03-22T03:53:43;93986.28;;;8.98;100.00
6345;BME280;3205;42.666;23.264;2023-03-22T03:56:09;93978.16;;;9.03;100.00
6345;BME280;3205;42.666;23.264;2023-03-22T03:58:36;93990.34;;;9.08;100.00
6345;BME280;3205;42.666;23.264;2023-03-22T04:01:02;93988.13;;;8.98;100.00
6345;BME280;3205;42.666;23.264;2023-03-22T04:03:29;93995.28;;;8.97;100.00
6345;BME280;3205;42.666;23.264;2023-03-22T04:05:56;93986.28;;;8.98;100.00
6345;BME280;3205;42.666;23.264;2023-03-22T04:08:24;93997.59;;;8.99;100.00
6345;BME280;3205;42.666;23.264;2023-03-22T04:10:50;94000.97;;;8.99;100.00
6345;BME280;3205;42.666;23.264;2023-03-22T04:13:17;94009.91;;;8.95;100.00
6345;BME280;3205;42.666;23.264;2023-03-22T04:15:46;94005.63;;;8.90;100.00
6345;BME280;3205;42.666;23.264;2023-03-22T04:18:12;93999.03;;;8.85;100.00
6345;BME280;3205;42.666;23.264;2023-03-22T04:20:38;93994.28;;;8.90;100.00
6345;BME280;3205;42.666;23.264;2023-03-22T04:23:06;94001.91;;;8.91;100.00
6345;BME280;3205;42.666;23.264;2023-03-22T04:25:35;94004.81;;;9.02;100.00
6345;BME280;3205;42.666;23.264;2023-03-22T04:28:03;94000.66;;;9.01;100.00
6345;BME280;3205;42.666;23.264;2023-03-22T04:30:31;94009.00;;;9.03;100.00
6345;BME280;3205;42.666;23.264;2023-03-22T04:33:01;94005.16;;;9.00;100.00
6345;BME280;3205;42.666;23.264;2023-03-22T04:35:31;94016.03;;;8.99;100.00
6345;BME280;3205;42.666;23.264;2023-03-22T04:37:57;94006.94;;;8.85;100.00
6345;BME280;3205;42.666;23.264;2023-03-22T04:40:25;94006.59;;;8.86;100.00
6345;BME280;3205;42.666;23.264;2023-03-22T04:42:53;94010.66;;;8.95;100.00
6345;BME280;3205;42.666;23.264;2023-03-22T04:45:22;94020.97;;;9.00;100.00
6345;BME280;3205;42.666;23.264;2023-03-22T04:47:48;94018.00;;;9.02;100.00
6345;BME280;3205;42.666;23.264;2023-03-22T04:50:15;94015.91;;;9.07;100.00
6345;BME280;3205;42.666;23.264;2023-03-22T04:52:41;94014.06;;;9.08;100.00
6345;BME280;3205;42.666;23.264;2023-03-22T04:55:07;94020.75;;;9.17;100.00
6345;BME280;3205;42.666;23.264;2023-03-22T04:57:34;94027.88;;;9.17;100.00
6345;BME280;3205;42.666;23.264;2023-03-22T05:00:00;94025.91;;;9.14;100.00
6345;BME280;3205;42.666;23.264;2023-03-22T05:02:26;94022.19;;;9.15;100.00
6345;BME280;3205;42.666;23.264;2023-03-22T05:04:52;94033.94;;;9.17;100.00
6345;BME280;3205;42.666;23.264;2023-03-22T05:07:19;94031.41;;;9.21;100.00
6345;BME280;3205;42.666;23.264;2023-03-22T05:09:46;94031.41;;;9.21;100.00
6345;BME280;3205;42.666;23.264;2023-03-22T05:12:12;94034.16;;;9.24;100.00
6345;BME280;3205;42.666;23.264;2023-03-22T05:14:38;94032.38;;;9.28;100.00
6345;BME280;3205;42.666;23.264;2023-03-22T05:17:04;94032.13;;;9.33;100.00
6345;BME280;3205;42.666;23.264;2023-03-22T05:19:30;94034.97;;;9.40;100.00
6345;BME280;3205;42.666;23.264;2023-03-22T05:21:57;94039.25;;;9.45;100.00
6345;BME280;3205;42.666;23.264;2023-03-22T05:24:27;94038.38;;;9.53;100.00
6345;BME280;3205;42.666;23.264;2023-03-22T05:26:54;94052.13;;;9.46;100.00
6345;BME280;3205;42.666;23.264;2023-03-22T05:29:20;94043.31;;;9.54;100.00
6345;BME280;3205;42.666;23.264;2023-03-22T05:31:47;94045.75;;;9.59;100.00
6345;BME280;3205;42.666;23.264;2023-03-22T05:34:13;94045.84;;;9.62;100.00
6345;BME280;3205;42.666;23.264;2023-03-22T05:36:39;94051.53;;;9.64;100.00
6345;BME280;3205;42.666;23.264;2023-03-22T05:39:06;94049.69;;;9.65;100.00
6345;BME280;3205;42.666;23.264;2023-03-22T05:41:33;94054.38;;;9.71;100.00
6345;BME280;3205;42.666;23.264;2023-03-22T05:44:00;94051.72;;;9.71;100.00
6345;BME280;3205;42.666;23.264;2023-03-22T05:46:26;94051.72;;;9.71;100.00
6345;BME280;3205;42.666;23.264;2023-03-22T05:48:52;94059.50;;;9.80;100.00
6345;BME280;3205;42.666;23.264;2023-03-22T05:51:18;94061.53;;;9.71;100.00
6345;BME280;3205;42.666;23.264;2023-03-22T05:53:45;94062.28;;;9.71;100.00
6345;BME280;3205;42.666;23.264;2023-03-22T05:56:11;94064.72;;;9.76;100.00
6345;BME280;3205;42.666;23.264;2023-03-22T05:58:38;94071.16;;;9.91;100.00
6345;BME280;3205;42.666;23.264;2023-03-22T06:01:07;94069.72;;;9.93;100.00
6345;BME280;3205;42.666;23.264;2023-03-22T06:03:33;94073.09;;;9.94;100.00
6345;BME280;3205;42.666;23.264;2023-03-22T06:06:00;94079.97;;;9.83;100.00
6345;BME280;3205;42.666;23.264;2023-03-22T06:08:26;94075.22;;;9.88;100.00
6345;BME280;3205;42.666;23.264;2023-03-22T06:10:53;94081.72;;;9.91;100.00
6345;BME280;3205;42.666;23.264;2023-03-22T06:13:19;94077.09;;;9.88;100.00
6345;BME280;3205;42.666;23.264;2023-03-22T06:15:46;94077.09;;;10.00;100.00
6345;BME280;3205;42.666;23.264;2023-03-22T06:18:12;94081.94;;;9.98;100.00
6345;BME280;3205;42.666;23.264;2023-03-22T06:20:39;94079.59;;;10.08;100.00
6345;BME280;3205;42.666;23.264;2023-03-22T06:23:05;94078.34;;;10.18;100.00
6345;BME280;3205;42.666;23.264;2023-03-22T06:25:32;94084.81;;;10.20;100.00
6345;BME280;3205;42.666;23.264;2023-03-22T06:27:58;94082.56;;;10.34;100.00
6345;BME280;3205;42.666;23.264;2023-03-22T06:30:25;94090.69;;;10.56;100.00
6345;BME280;3205;42.666;23.264;2023-03-22T06:32:51;94088.94;;;10.76;100.00
6345;BME280;3205;42.666;23.264;2023-03-22T06:35:18;94094.56;;;10.74;100.00
6345;BME280;3205;42.666;23.264;2023-03-22T06:37:44;94100.22;;;10.88;100.00
6345;BME280;3205;42.666;23.264;2023-03-22T06:40:11;94105.81;;;11.02;100.00
6345;BME280;3205;42.666;23.264;2023-03-22T06:42:37;94114.63;;;10.91;100.00
6345;BME280;3205;42.666;23.264;2023-03-22T06:45:04;94108.25;;;10.92;100.00
6345;BME280;3205;42.666;23.264;2023-03-22T06:47:30;94100.44;;;10.99;100.00
6345;BME280;3205;42.666;23.264;2023-03-22T06:49:57;94110.88;;;11.07;100.00
6345;BME280;3205;42.666;23.264;2023-03-22T06:52:23;94110.63;;;11.12;100.00
6345;BME280;3205;42.666;23.264;2023-03-22T06:54:50;94116.41;;;11.33;100.00
6345;BME280;3205;42.666;23.264;2023-03-22T06:57:16;94122.88;;;11.51;100.00
6345;BME280;3205;42.666;23.264;2023-03-22T06:59:42;94124.59;;;11.59;100.00
6345;BME280;3205;42.666;23.264;2023-03-22T07:02:10;94130.91;;;11.70;100.00
6345;BME280;3205;42.666;23.264;2023-03-22T07:04:36;94134.41;;;11.74;100.00
6345;BME280;3205;42.666;23.264;2023-03-22T07:07:03;94140.97;;;11.80;100.00
6345;BME280;3205;42.666;23.264;2023-03-22T07:09:30;94150.09;;;11.82;100.00
6345;BME280;3205;42.666;23.264;2023-03-22T07:11:56;94147.81;;;11.81;100.00
6345;BME280;3205;42.666;23.264;2023-03-22T07:14:22;94152.91;;;11.89;100.00
6345;BME280;3205;42.666;23.264;2023-03-22T07:16:48;94160.84;;;11.89;100.00
6345;BME280;3205;42.666;23.264;2023-03-22T07:19:14;94154.75;;;12.04;100.00
6345;BME280;3205;42.666;23.264;2023-03-22T07:21:42;94164.25;;;12.24;100.00
6345;BME280;3205;42.666;23.264;2023-03-22T07:24:09;94165.66;;;12.37;100.00
6345;BME280;3205;42.666;23.264;2023-03-22T07:26:36;94166.22;;;12.46;100.00
6345;BME280;3205;42.666;23.264;2023-03-22T07:29:03;94173.41;;;12.45;100.00
6345;BME280;3205;42.666;23.264;2023-03-22T07:31:29;94177.25;;;12.48;100.00
6345;BME280;3205;42.666;23.264;2023-03-22T07:33:56;94182.28;;;12.53;100.00
6345;BME280;3205;42.666;23.264;2023-03-22T07:36:22;94192.31;;;12.44;100.00
6345;BME280;3205;42.666;23.264;2023-03-22T07:38:50;94183.72;;;12.31;100.00
6345;BME280;3205;42.666;23.264;2023-03-22T07:41:17;94188.31;;;12.15;100.00
6345;BME280;3205;42.666;23.264;2023-03-22T07:43:43;94183.06;;;12.00;100.00
6345;BME280;3205;42.666;23.264;2023-03-22T07:46:09;94184.75;;;11.92;100.00
6345;BME280;3205;42.666;23.264;2023-03-22T07:48:35;94188.78;;;11.86;100.00
6345;BME280;3205;42.666;23.264;2023-03-22T07:51:04;94193.25;;;11.83;100.00
6345;BME280;3205;42.666;23.264;2023-03-22T07:53:30;94185.13;;;11.60;100.00
6345;BME280;3205;42.666;23.264;2023-03-22T07:55:56;94191.88;;;11.42;100.00
6345;BME280;3205;42.666;23.264;2023-03-22T07:58:23;94190.75;;;11.43;100.00
6345;BME280;3205;42.666;23.264;2023-03-22T08:00:49;94193.31;;;11.40;100.00
6345;BME280;3205;42.666;23.264;2023-03-22T08:03:15;94183.84;;;11.39;100.00
6345;BME280;3205;42.666;23.264;2023-03-22T08:05:42;94186.13;;;11.40;100.00
6345;BME280;3205;42.666;23.264;2023-03-22T08:08:09;94186.84;;;11.37;100.00
6345;BME280;3205;42.666;23.264;2023-03-22T08:10:35;94181.47;;;11.34;100.00
6345;BME280;3205;42.666;23.264;2023-03-22T08:13:01;94183.09;;;11.38;100.00
6345;BME280;3205;42.666;23.264;2023-03-22T08:15:28;94178.47;;;11.35;100.00
6345;BME280;3205;42.666;23.264;2023-03-22T08:17:56;94184.38;;;11.29;100.00
6345;BME280;3205;42.666;23.264;2023-03-22T08:20:22;94178.13;;;11.21;100.00
6345;BME280;3205;42.666;23.264;2023-03-22T08:22:51;94182.22;;;11.19;100.00
6345;BME280;3205;42.666;23.264;2023-03-22T08:25:18;94185.63;;;11.19;100.00
6345;BME280;3205;42.666;23.264;2023-03-22T08:27:44;94191.25;;;11.18;100.00
6345;BME280;3205;42.666;23.264;2023-03-22T08:30:11;94184.50;;;11.20;100.00
6345;BME280;3205;42.666;23.264;2023-03-22T08:32:38;94179.38;;;11.12;100.00
6345;BME280;3205;42.666;23.264;2023-03-22T08:35:05;94179.31;;;11.08;100.00
6345;BME280;3205;42.666;23.264;2023-03-22T08:37:32;94183.41;;;11.06;100.00
6345;BME280;3205;42.666;23.264;2023-03-22T08:39:58;94177.41;;;11.09;100.00
6345;BME280;3205;42.666;23.264;2023-03-22T08:42:24;94176.81;;;11.00;100.00
6345;BME280;3205;42.666;23.264;2023-03-22T08:44:51;94183.66;;;11.01;100.00
6345;BME280;3205;42.666;23.264;2023-03-22T08:47:17;94178.19;;;11.09;100.00
6345;BME280;3205;42.666;23.264;2023-03-22T08:49:44;94188.59;;;11.18;100.00
6345;BME280;3205;42.666;23.264;2023-03-22T08:52:10;94182.28;;;11.07;100.00
6345;BME280;3205;42.666;23.264;2023-03-22T08:54:36;94188.53;;;11.14;100.00
6345;BME280;3205;42.666;23.264;2023-03-22T08:57:03;94191.25;;;11.18;100.00
6345;BME280;3205;42.666;23.264;2023-03-22T08:59:29;94189.72;;;11.17;100.00
6345;BME280;3205;42.666;23.264;2023-03-22T09:01:55;94196.38;;;11.11;100.00
6345;BME280;3205;42.666;23.264;2023-03-22T09:04:22;94198.56;;;11.09;100.00
6345;BME280;3205;42.666;23.264;2023-03-22T09:06:48;94202.09;;;11.13;100.00
6345;BME280;3205;42.666;23.264;2023-03-22T09:09:15;94201.13;;;11.06;100.00
6345;BME280;3205;42.666;23.264;2023-03-22T09:11:41;94194.97;;;11.02;100.00
6345;BME280;3205;42.666;23.264;2023-03-22T09:14:07;94194.06;;;11.09;100.00
6345;BME280;3205;42.666;23.264;2023-03-22T09:16:34;94196.44;;;11.14;100.00
6345;BME280;3205;42.666;23.264;2023-03-22T09:19:00;94197.16;;;11.27;100.00
6345;BME280;3205;42.666;23.264;2023-03-22T09:21:27;94200.66;;;11.31;100.00
6345;BME280;3205;42.666;23.264;2023-03-22T09:23:55;94190.41;;;11.29;100.00
6345;BME280;3205;42.666;23.264;2023-03-22T09:26:21;94198.53;;;11.21;100.00
6345;BME280;3205;42.666;23.264;2023-03-22T09:28:48;94191.59;;;11.32;100.00
6345;BME280;3205;42.666;23.264;2023-03-22T09:31:14;94196.22;;;11.35;100.00
6345;BME280;3205;42.666;23.264;2023-03-22T09:33:41;94194.44;;;11.39;100.00
6345;BME280;3205;42.666;23.264;2023-03-22T09:36:07;94196.41;;;11.42;100.00
6345;BME280;3205;42.666;23.264;2023-03-22T09:38:34;94200.56;;;11.43;100.00
6345;BME280;3205;42.666;23.264;2023-03-22T09:41:04;94202.38;;;11.54;100.00
6345;BME280;3205;42.666;23.264;2023-03-22T09:43:33;94195.31;;;11.58;100.00
6345;BME280;3205;42.666;23.264;2023-03-22T09:46:01;94201.63;;;11.54;100.00
6345;BME280;3205;42.666;23.264;2023-03-22T09:48:30;94199.91;;;11.61;100.00
6345;BME280;3205;42.666;23.264;2023-03-22T09:51:01;94206.31;;;11.60;100.00
6345;BME280;3205;42.666;23.264;2023-03-22T09:53:28;94195.47;;;11.65;100.00
6345;BME280;3205;42.666;23.264;2023-03-22T09:56:02;94198.19;;;11.84;100.00
6345;BME280;3205;42.666;23.264;2023-03-22T09:58:34;94199.31;;;11.83;100.00
6345;BME280;3205;42.666;23.264;2023-03-22T10:01:06;94207.38;;;12.05;100.00
6345;BME280;3205;42.666;23.264;2023-03-22T10:06:31;94205.41;;;12.37;100.00
6345;BME280;3205;42.666;23.264;2023-03-22T10:09:02;94215.47;;;12.47;100.00
6345;BME280;3205;42.666;23.264;2023-03-22T10:11:40;94220.00;;;12.46;100.00
6345;BME280;3205;42.666;23.264;2023-03-22T10:14:19;94221.91;;;12.46;100.00
6345;BME280;3205;42.666;23.264;2023-03-22T10:16:50;94218.00;;;12.40;100.00
6345;BME280;3205;42.666;23.264;2023-03-22T10:19:22;94227.03;;;12.39;100.00
6345;BME280;3205;42.666;23.264;2023-03-22T10:21:51;94229.13;;;12.30;100.00
6345;BME280;3205;42.666;23.264;2023-03-22T10:24:22;94218.78;;;12.25;100.00
6345;BME280;3205;42.666;23.264;2023-03-22T10:26:50;94227.63;;;12.13;100.00
6345;BME280;3205;42.666;23.264;2023-03-22T10:29:22;94236.78;;;12.00;100.00
6345;BME280;3205;42.666;23.264;2023-03-22T10:31:49;94237.28;;;11.90;100.00
6345;BME280;3205;42.666;23.264;2023-03-22T10:34:19;94233.53;;;11.91;100.00
6345;BME280;3205;42.666;23.264;2023-03-22T10:36:51;94226.72;;;11.75;100.00
6345;BME280;3205;42.666;23.264;2023-03-22T10:39:28;94231.19;;;11.71;100.00
6345;BME280;3205;42.666;23.264;2023-03-22T10:41:59;94231.75;;;11.65;100.00
6345;BME280;3205;42.666;23.264;2023-03-22T10:44:29;94225.38;;;11.66;100.00
6345;BME280;3205;42.666;23.264;2023-03-22T10:47:00;94229.03;;;11.61;100.00
6345;BME280;3205;42.666;23.264;2023-03-22T10:49:35;94226.16;;;11.66;100.00
6345;BME280;3205;42.666;23.264;2023-03-22T10:52:11;94222.44;;;11.71;100.00
6345;BME280;3205;42.666;23.264;2023-03-22T10:54:43;94228.94;;;11.58;100.00
6345;BME280;3205;42.666;23.264;2023-03-22T10:57:10;94225.97;;;11.59;100.00
6345;BME280;3205;42.666;23.264;2023-03-22T10:59:47;94226.06;;;11.63;100.00
6345;BME280;3205;42.666;23.264;2023-03-22T11:02:19;94228.72;;;11.63;100.00
6345;BME280;3205;42.666;23.264;2023-03-22T11:04:47;94235.03;;;11.58;100.00
6345;BME280;3205;42.666;23.264;2023-03-22T11:07:25;94226.81;;;11.63;100.00
6345;BME280;3205;42.666;23.264;2023-03-22T11:09:58;94230.38;;;11.71;100.00
6345;BME280;3205;42.666;23.264;2023-03-22T11:12:25;94226.47;;;11.65;100.00
6345;BME280;3205;42.666;23.264;2023-03-22T11:14:52;94220.69;;;11.59;100.00
6345;BME280;3205;42.666;23.264;2023-03-22T11:17:21;94215.72;;;11.58;100.00
6345;BME280;3205;42.666;23.264;2023-03-22T11:19:53;94210.34;;;11.54;100.00
6345;BME280;3205;42.666;23.264;2023-03-22T11:22:25;94206.13;;;11.53;100.00
6345;BME280;3205;42.666;23.264;2023-03-22T11:24:54;94195.34;;;11.46;100.00
6345;BME280;3205;42.666;23.264;2023-03-22T11:27:23;94195.69;;;11.45;100.00
6345;BME280;3205;42.666;23.264;2023-03-22T11:29:52;94201.25;;;11.40;100.00
6345;BME280;3205;42.666;23.264;2023-03-22T11:32:24;94201.00;;;11.45;100.00
6345;BME280;3205;42.666;23.264;2023-03-22T11:34:58;94187.22;;;11.51;100.00
6345;BME280;3205;42.666;23.264;2023-03-22T11:37:25;94191.28;;;11.49;100.00
6345;BME280;3205;42.666;23.264;2023-03-22T11:39:58;94192.66;;;11.58;100.00
6345;BME280;3205;42.666;23.264;2023-03-22T11:42:26;94191.13;;;11.57;100.00
6345;BME280;3205;42.666;23.264;2023-03-22T11:44:54;94200.53;;;11.55;100.00
6345;BME280;3205;42.666;23.264;2023-03-22T11:47:21;94185.84;;;11.57;100.00
6345;BME280;3205;42.666;23.264;2023-03-22T11:49:51;94195.72;;;11.60;100.00
6345;BME280;3205;42.666;23.264;2023-03-22T11:52:21;94189.84;;;11.67;100.00
6345;BME280;3205;42.666;23.264;2023-03-22T11:54:48;94184.00;;;11.77;100.00
6345;BME280;3205;42.666;23.264;2023-03-22T11:57:16;94191.25;;;11.95;100.00
6345;BME280;3205;42.666;23.264;2023-03-22T11:59:48;94196.78;;;12.05;100.00
6345;BME280;3205;42.666;23.264;2023-03-22T12:02:22;94204.19;;;12.15;100.00
6345;BME280;3205;42.666;23.264;2023-03-22T12:04:55;94204.00;;;12.24;100.00
6345;BME280;3205;42.666;23.264;2023-03-22T12:07:26;94203.72;;;12.29;100.00
6345;BME280;3205;42.666;23.264;2023-03-22T12:09:57;94203.31;;;12.27;100.00
6345;BME280;3205;42.666;23.264;2023-03-22T12:12:27;94211.34;;;12.30;100.00
6345;BME280;3205;42.666;23.264;2023-03-22T12:14:58;94208.50;;;12.39;100.00
6345;BME280;3205;42.666;23.264;2023-03-22T12:17:33;94207.19;;;12.48;100.00
6345;BME280;3205;42.666;23.264;2023-03-22T12:20:09;94201.59;;;12.53;100.00
6345;BME280;3205;42.666;23.264;2023-03-22T12:22:43;94205.56;;;12.62;100.00
6345;BME280;3205;42.666;23.264;2023-03-22T12:25:14;94200.53;;;12.76;100.00
6345;BME280;3205;42.666;23.264;2023-03-22T12:27:44;94212.94;;;12.88;100.00
6345;BME280;3205;42.666;23.264;2023-03-22T12:30:15;94208.16;;;13.16;100.00
6345;BME280;3205;42.666;23.264;2023-03-22T12:32:45;94217.19;;;13.33;100.00
6345;BME280;3205;42.666;23.264;2023-03-22T12:35:16;94219.41;;;13.50;100.00
6345;BME280;3205;42.666;23.264;2023-03-22T12:37:45;94218.63;;;13.72;100.00
6345;BME280;3205;42.666;23.264;2023-03-22T12:40:20;94213.94;;;13.88;100.00
6345;BME280;3205;42.666;23.264;2023-03-22T12:42:53;94213.25;;;14.17;100.00
6345;BME280;3205;42.666;23.264;2023-03-22T12:45:24;94220.84;;;13.93;100.00
6345;BME280;3205;42.666;23.264;2023-03-22T12:47:56;94228.31;;;14.09;100.00
6345;BME280;3205;42.666;23.264;2023-03-22T12:50:30;94225.66;;;14.09;100.00
6345;BME280;3205;42.666;23.264;2023-03-22T12:52:58;94220.03;;;14.11;100.00
6345;BME280;3205;42.666;23.264;2023-03-22T12:55:28;94228.03;;;14.14;100.00
6345;BME280;3205;42.666;23.264;2023-03-22T12:57:55;94225.44;;;14.18;100.00
6345;BME280;3205;42.666;23.264;2023-03-22T13:00:26;94233.84;;;14.20;100.00
6345;BME280;3205;42.666;23.264;2023-03-22T13:02:57;94227.44;;;14.02;100.00
6345;BME280;3205;42.666;23.264;2023-03-22T13:05:27;94221.16;;;13.88;100.00
6345;BME280;3205;42.666;23.264;2023-03-22T13:07:54;94223.53;;;13.70;100.00
6345;BME280;3205;42.666;23.264;2023-03-22T13:10:48;94221.25;;;13.50;100.00
6345;BME280;3205;42.666;23.264;2023-03-22T13:13:30;94227.88;;;13.37;100.00
6345;BME280;3205;42.666;23.264;2023-03-22T13:16:01;94217.06;;;13.27;100.00
6345;BME280;3205;42.666;23.264;2023-03-22T13:18:33;94213.53;;;13.19;100.00
6345;BME280;3205;42.666;23.264;2023-03-22T13:21:10;94207.34;;;13.12;100.00
6345;BME280;3205;42.666;23.264;2023-03-22T13:23:51;94203.47;;;13.09;100.00